Time;durP1;ratioP1;P1;durP2;ratioP2;P2;SDS_P1;SDS_P2;PMS_P1;PMS_P2;Temp;Humidity;BMP_temperature;BMP_pressure;BME280_temperature;BME280_humidity;BME280_pressure;Samples;Min_cycle;Max_cycle;Signal;HPM_P1;HPM_P2
2022/07/25 00:01:08;;;;;;;2.65;2.20;;;;;;;;;;10445401;28;20021;-58
2022/07/25 00:06:08;;;;;;;2.58;2.13;;;;;;;;;;10441332;28;20037;-58
2022/07/25 00:11:09;;;;;;;10.48;2.78;;;;;;;;;;10451144;28;20027;-54
2022/07/25 00:16:10;;;;;;;2.60;2.08;;;;;;;;;;10448615;28;20040;-57
2022/07/25 00:21:11;;;;;;;9.95;2.50;;;;;;;;;;10442502;28;20061;-57
2022/07/25 00:26:11;;;;;;;2.97;2.20;;;;;;;;;;10447952;28;20036;-57
2022/07/25 00:31:12;;;;;;;5.00;2.65;;;;;;;;;;10446664;28;20032;-58
2022/07/25 00:36:12;;;;;;;3.30;2.55;;;;;;;;;;10449176;28;20025;-56
2022/07/25 00:41:13;;;;;;;6.40;2.55;;;;;;;;;;10449670;28;20029;-51
2022/07/25 00:46:15;;;;;;;4.13;3.03;;;;;;;;;;10440972;28;20033;-54
2022/07/25 00:51:16;;;;;;;5.22;2.30;;;;;;;;;;10442917;28;20104;-55
2022/07/25 00:56:17;;;;;;;5.13;2.30;;;;;;;;;;10445869;28;20110;-54
2022/07/25 01:01:18;;;;;;;2.83;1.85;;;;;;;;;;10413562;28;20082;-53
2022/07/25 01:06:20;;;;;;;3.75;2.38;;;;;;;;;;10447415;28;20021;-50
2022/07/25 01:11:21;;;;;;;3.72;2.40;;;;;;;;;;10447229;28;20029;-53
2022/07/25 01:16:22;;;;;;;5.43;2.30;;;;;;;;;;10444828;28;20032;-50
2022/07/25 01:21:24;;;;;;;3.38;2.30;;;;;;;;;;10447612;28;20037;-57
2022/07/25 01:26:25;;;;;;;3.60;2.35;;;;;;;;;;10448226;28;20102;-58
2022/07/25 01:31:26;;;;;;;4.25;2.50;;;;;;;;;;10433289;28;20035;-56
2022/07/25 01:36:26;;;;;;;5.35;2.28;;;;;;;;;;10447865;28;20031;-52
2022/07/25 01:41:27;;;;;;;2.65;2.30;;;;;;;;;;10445479;28;20025;-56
2022/07/25 01:46:28;;;;;;;3.17;2.33;;;;;;;;;;10442578;28;20018;-56
2022/07/25 01:51:28;;;;;;;3.80;2.40;;;;;;;;;;10442445;28;20041;-58
2022/07/25 01:56:29;;;;;;;5.57;2.22;;;;;;;;;;10436694;28;20029;-55
2022/07/25 02:01:29;;;;;;;2.40;1.83;;;;;;;;;;10454683;28;20032;-51
2022/07/25 02:06:30;;;;;;;5.28;2.33;;;;;;;;;;10440955;28;20025;-55
2022/07/25 02:11:30;;;;;;;2.72;2.38;;;;;;;;;;10452467;28;20438;-53
2022/07/25 02:16:31;;;;;;;3.40;2.47;;;;;;;;;;10448044;28;20024;-53
2022/07/25 02:21:32;;;;;;;6.13;2.70;;;;;;;;;;10452638;28;20037;-50
2022/07/25 02:26:32;;;;;;;4.90;2.45;;;;;;;;;;10455108;28;20052;-52
2022/07/25 02:31:33;;;;;;;4.97;2.20;;;;;;;;;;10446789;28;20150;-55
2022/07/25 02:36:34;;;;;;;11.25;2.20;;;;;;;;;;10454780;28;20036;-53
2022/07/25 02:41:34;;;;;;;3.05;2.13;;;;;;;;;;10452643;28;20171;-53
2022/07/25 02:46:35;;;;;;;6.82;2.42;;;;;;;;;;10427174;28;20036;-53
2022/07/25 02:51:35;;;;;;;4.47;2.45;;;;;;;;;;10445286;28;20033;-54
2022/07/25 02:56:36;;;;;;;2.60;2.20;;;;;;;;;;10452913;28;20041;-53
2022/07/25 03:01:36;;;;;;;5.30;2.30;;;;;;;;;;10445304;28;20033;-53
2022/07/25 03:06:37;;;;;;;3.97;2.35;;;;;;;;;;10451857;28;20033;-55
2022/07/25 03:11:38;;;;;;;2.95;2.53;;;;;;;;;;10450641;28;20025;-54
2022/07/25 03:16:38;;;;;;;3.78;2.40;;;;;;;;;;10452704;28;20490;-54
2022/07/25 03:21:39;;;;;;;3.08;2.25;;;;;;;;;;10444546;28;20040;-49
2022/07/25 03:26:39;;;;;;;4.65;2.53;;;;;;;;;;10442647;28;20045;-54
2022/07/25 03:31:40;;;;;;;2.70;2.45;;;;;;;;;;10437034;28;20377;-50
2022/07/25 03:36:41;;;;;;;2.47;2.17;;;;;;;;;;10453130;28;20430;-52
2022/07/25 03:41:41;;;;;;;3.58;2.30;;;;;;;;;;10443440;28;20033;-52
2022/07/25 03:46:42;;;;;;;4.93;2.45;;;;;;;;;;10452244;28;20040;-56
2022/07/25 03:51:43;;;;;;;2.95;2.67;;;;;;;;;;10451238;28;20242;-56
2022/07/25 03:56:48;;;;;;;5.65;2.20;;;;;;;;;;10438604;28;20169;-56
2022/07/25 04:01:49;;;;;;;3.88;2.35;;;;;;;;;;10438722;28;20029;-56
2022/07/25 04:06:50;;;;;;;2.10;1.90;;;;;;;;;;10439786;28;20029;-53
2022/07/25 04:11:51;;;;;;;2.45;2.20;;;;;;;;;;10449166;28;20025;-52
2022/07/25 04:16:51;;;;;;;5.13;2.20;;;;;;;;;;10440562;28;20032;-56
2022/07/25 04:21:52;;;;;;;3.28;2.20;;;;;;;;;;10449104;28;20534;-56
2022/07/25 04:26:52;;;;;;;3.33;2.35;;;;;;;;;;10449952;28;20496;-57
2022/07/25 04:31:53;;;;;;;3.05;2.40;;;;;;;;;;10440308;28;20419;-56
2022/07/25 04:36:53;;;;;;;2.67;2.38;;;;;;;;;;10450049;28;20373;-55
2022/07/25 04:41:54;;;;;;;8.05;2.30;;;;;;;;;;10448065;28;20443;-55
2022/07/25 04:46:54;;;;;;;2.50;2.30;;;;;;;;;;10440917;28;20033;-56
2022/07/25 04:51:55;;;;;;;2.45;2.20;;;;;;;;;;10449321;28;20028;-56
2022/07/25 04:56:56;;;;;;;3.25;2.17;;;;;;;;;;10447157;28;20028;-57
2022/07/25 05:01:57;;;;;;;5.00;2.40;;;;;;;;;;10430323;28;20116;-58
2022/07/25 05:06:58;;;;;;;9.07;2.33;;;;;;;;;;10447375;28;20017;-57
2022/07/25 05:11:59;;;;;;;5.47;2.63;;;;;;;;;;10442861;28;20032;-56
2022/07/25 05:16:59;;;;;;;4.53;2.20;;;;;;;;;;10447573;28;20044;-59
2022/07/25 05:22:01;;;;;;;2.80;2.35;;;;;;;;;;10435138;28;20025;-58
2022/07/25 05:27:03;;;;;;;9.65;3.28;;;;;;;;;;10441556;28;20124;-60
2022/07/25 05:32:04;;;;;;;12.68;5.65;;;;;;;;;;10444669;28;20518;-57
2022/07/25 05:37:04;;;;;;;8.00;4.90;;;;;;;;;;10444272;28;20036;-55
2022/07/25 05:42:06;;;;;;;26.00;5.82;;;;;;;;;;10443856;28;20376;-60
2022/07/25 05:47:10;;;;;;;17.70;5.68;;;;;;;;;;10444268;28;20424;-59
2022/07/25 05:52:11;;;;;;;17.17;5.72;;;;;;;;;;10437124;28;20087;-58
2022/07/25 05:57:12;;;;;;;15.32;6.35;;;;;;;;;;10435098;28;20149;-57
2022/07/25 06:02:12;;;;;;;22.65;6.72;;;;;;;;;;10423191;28;20025;-57
2022/07/25 06:07:13;;;;;;;16.50;6.20;;;;;;;;;;10442043;28;20057;-60
2022/07/25 06:12:14;;;;;;;23.02;7.07;;;;;;;;;;10436013;28;20041;-58
2022/07/25 06:17:14;;;;;;;16.40;6.50;;;;;;;;;;10417148;28;20040;-50
2022/07/25 06:22:15;;;;;;;11.77;5.72;;;;;;;;;;10427241;28;20112;-52
2022/07/25 06:27:15;;;;;;;13.02;6.45;;;;;;;;;;10445759;28;20041;-50
2022/07/25 06:32:16;;;;;;;15.35;6.60;;;;;;;;;;10439128;28;20027;-52
2022/07/25 06:37:16;;;;;;;10.75;6.03;;;;;;;;;;10454072;28;20021;-48
2022/07/25 06:42:17;;;;;;;9.25;5.95;;;;;;;;;;10455019;28;20021;-53
2022/07/25 06:47:18;;;;;;;11.00;5.72;;;;;;;;;;10454571;28;20107;-50
2022/07/25 06:52:18;;;;;;;10.13;5.72;;;;;;;;;;10453426;28;20025;-56
2022/07/25 06:57:19;;;;;;;15.43;5.97;;;;;;;;;;10454053;28;20028;-50
2022/07/25 07:02:20;;;;;;;9.15;5.80;;;;;;;;;;10453725;28;20124;-50
2022/07/25 07:07:20;;;;;;;9.90;5.53;;;;;;;;;;10452629;28;20036;-54
2022/07/25 07:12:21;;;;;;;9.25;5.65;;;;;;;;;;10451629;28;20032;-55
2022/07/25 07:17:21;;;;;;;14.95;6.10;;;;;;;;;;10453003;28;20427;-52
2022/07/25 07:22:22;;;;;;;10.80;6.40;;;;;;;;;;10451821;28;20357;-51
2022/07/25 07:27:23;;;;;;;8.45;6.00;;;;;;;;;;10452185;28;20063;-56
2022/07/25 07:32:23;;;;;;;9.88;5.95;;;;;;;;;;10442931;28;20044;-59
2022/07/25 07:37:24;;;;;;;8.52;5.60;;;;;;;;;;10442888;28;20024;-58
2022/07/25 07:42:24;;;;;;;8.43;5.55;;;;;;;;;;10444837;28;20540;-54
2022/07/25 07:47:25;;;;;;;13.70;5.35;;;;;;;;;;10450847;28;20021;-51
2022/07/25 07:52:25;;;;;;;10.52;6.07;;;;;;;;;;10451788;28;20033;-55
2022/07/25 07:57:26;;;;;;;6.65;5.45;;;;;;;;;;10451323;28;20025;-56
2022/07/25 08:02:27;;;;;;;10.40;5.70;;;;;;;;;;10443763;28;20264;-59
2022/07/25 08:07:27;;;;;;;9.30;5.57;;;;;;;;;;10449933;28;20029;-53
2022/07/25 08:12:28;;;;;;;7.32;5.55;;;;;;;;;;10450469;28;20021;-56
2022/07/25 08:17:28;;;;;;;9.95;6.00;;;;;;;;;;10440636;28;20024;-56
2022/07/25 08:22:38;;;;;;;8.13;5.32;;;;;;;;;;10448814;28;20086;-55
2022/07/25 08:27:39;;;;;;;7.28;5.40;;;;;;;;;;10448677;28;20059;-59
2022/07/25 08:32:50;;;;;;;9.10;5.28;;;;;;;;;;10431139;28;20365;-59
2022/07/25 08:37:52;;;;;;;8.85;4.82;;;;;;;;;;10431633;28;20025;-55
2022/07/25 08:42:53;;;;;;;12.52;5.72;;;;;;;;;;10431604;28;20064;-58
2022/07/25 08:47:55;;;;;;;8.57;5.47;;;;;;;;;;10449549;28;20033;-56
2022/07/25 08:52:56;;;;;;;10.60;6.15;;;;;;;;;;10440127;28;20067;-57
2022/07/25 08:57:56;;;;;;;11.00;5.82;;;;;;;;;;10445033;28;20124;-53
2022/07/25 09:03:01;;;;;;;7.95;5.47;;;;;;;;;;10423816;28;20033;-57
2022/07/25 09:08:13;;;;;;;6.10;5.50;;;;;;;;;;10435031;28;20040;-59
2022/07/25 09:13:15;;;;;;;7.53;5.50;;;;;;;;;;10434642;28;20029;-58
2022/07/25 09:18:21;;;;;;;7.55;5.85;;;;;;;;;;10446635;28;20387;-59
2022/07/25 09:23:29;;;;;;;14.15;5.53;;;;;;;;;;10445212;28;20017;-57
2022/07/25 09:28:30;;;;;;;11.73;6.43;;;;;;;;;;10445877;28;20357;-57
2022/07/25 09:33:31;;;;;;;10.00;5.60;;;;;;;;;;10439261;28;20025;-56
2022/07/25 09:38:32;;;;;;;6.95;5.60;;;;;;;;;;10438696;28;20470;-58
2022/07/25 09:43:43;;;;;;;9.60;5.60;;;;;;;;;;10438489;28;20039;-58
2022/07/25 09:48:44;;;;;;;9.07;5.78;;;;;;;;;;10438055;28;20025;-58
2022/07/25 09:53:44;;;;;;;8.60;5.97;;;;;;;;;;10429696;28;20030;-55
2022/07/25 09:58:45;;;;;;;7.03;5.57;;;;;;;;;;10438157;28;20547;-56
2022/07/25 10:04:19;;;;;;;6.78;5.63;;;;;;;;;;10447413;28;20036;-54
2022/07/25 10:09:21;;;;;;;10.95;6.13;;;;;;;;;;10426692;28;20025;-51
2022/07/25 10:14:21;;;;;;;7.05;5.13;;;;;;;;;;10453373;28;20037;-52
2022/07/25 10:19:54;;;;;;;9.30;5.32;;;;;;;;;;10455330;28;20487;-53
2022/07/25 10:25:06;;;;;;;8.20;5.70;;;;;;;;;;10419280;28;20073;-53
2022/07/25 10:30:18;;;;;;;8.05;5.50;;;;;;;;;;10429306;28;20029;-55
2022/07/25 10:35:19;;;;;;;6.63;5.75;;;;;;;;;;10454354;28;20396;-53
2022/07/25 10:40:43;;;;;;;6.78;5.50;;;;;;;;;;10455266;28;20047;-49
2022/07/25 10:45:53;;;;;;;11.25;5.18;;;;;;;;;;10445069;28;20039;-59
2022/07/25 10:51:07;;;;;;;7.45;5.57;;;;;;;;;;10453747;28;20116;-58
2022/07/25 10:56:20;;;;;;;6.70;5.32;;;;;;;;;;10454035;28;20381;-59
2022/07/25 11:01:36;;;;;;;8.25;4.75;;;;;;;;;;10453990;28;20040;-53
2022/07/25 11:06:40;;;;;;;7.70;5.30;;;;;;;;;;10439702;28;20040;-57
2022/07/25 11:11:50;;;;;;;8.27;5.53;;;;;;;;;;10453632;28;20075;-57
2022/07/25 11:16:53;;;;;;;10.05;5.30;;;;;;;;;;10440326;28;20069;-59
2022/07/25 11:22:00;;;;;;;9.57;5.20;;;;;;;;;;10451267;28;20074;-52
2022/07/25 11:27:00;;;;;;;9.57;5.32;;;;;;;;;;10452279;28;20056;-52
2022/07/25 11:32:09;;;;;;;13.45;5.75;;;;;;;;;;10443396;28;20032;-50
2022/07/25 11:37:11;;;;;;;9.38;5.40;;;;;;;;;;10449663;28;20098;-53
2022/07/25 11:42:18;;;;;;;15.90;5.22;;;;;;;;;;10447168;28;20116;-52
2022/07/25 11:47:25;;;;;;;14.93;5.80;;;;;;;;;;10449141;28;20099;-53
2022/07/25 11:52:30;;;;;;;12.07;4.82;;;;;;;;;;10450816;28;20027;-52
2022/07/25 11:57:41;;;;;;;17.45;5.55;;;;;;;;;;10451966;28;20056;-56
2022/07/25 12:02:41;;;;;;;9.38;5.43;;;;;;;;;;10450811;28;20036;-55
2022/07/25 12:07:48;;;;;;;12.45;5.88;;;;;;;;;;10448935;28;20502;-53
2022/07/25 12:12:53;;;;;;;5.83;5.23;;;;;;;;;;10450893;28;20475;-57
2022/07/25 12:17:55;;;;;;;7.53;5.10;;;;;;;;;;10445096;28;20037;-53
2022/07/25 12:23:07;;;;;;;12.27;5.32;;;;;;;;;;10446119;28;20481;-53
2022/07/25 12:28:09;;;;;;;8.75;5.40;;;;;;;;;;10435914;28;20064;-53
2022/07/25 12:33:11;;;;;;;15.48;5.70;;;;;;;;;;10441646;28;20431;-52
2022/07/25 12:38:13;;;;;;;6.28;5.65;;;;;;;;;;10448078;28;20192;-55
2022/07/25 12:43:13;;;;;;;10.48;5.80;;;;;;;;;;10449671;28;20021;-53
2022/07/25 12:48:14;;;;;;;10.93;5.55;;;;;;;;;;10447379;28;20026;-55
2022/07/25 12:53:15;;;;;;;11.70;5.95;;;;;;;;;;10449554;28;20082;-59
2022/07/25 12:58:16;;;;;;;15.30;6.65;;;;;;;;;;10447437;28;20037;-57
2022/07/25 13:03:17;;;;;;;7.68;5.72;;;;;;;;;;10448873;28;20464;-55
2022/07/25 13:08:17;;;;;;;13.55;6.00;;;;;;;;;;10447346;28;20021;-59
2022/07/25 13:13:18;;;;;;;11.52;6.90;;;;;;;;;;10448179;28;20032;-57
2022/07/25 13:18:19;;;;;;;23.30;9.57;;;;;;;;;;10444009;28;20047;-58
2022/07/25 13:23:19;;;;;;;19.92;8.32;;;;;;;;;;10414927;28;20029;-59
2022/07/25 13:28:20;;;;;;;14.15;8.27;;;;;;;;;;10441538;28;20025;-58
2022/07/25 13:33:20;;;;;;;18.60;8.45;;;;;;;;;;10419676;28;20362;-56
2022/07/25 13:38:21;;;;;;;16.13;8.55;;;;;;;;;;10426873;28;20120;-54
2022/07/25 13:43:22;;;;;;;16.50;7.95;;;;;;;;;;10426754;28;20078;-54
2022/07/25 13:48:22;;;;;;;19.80;7.88;;;;;;;;;;10434800;28;20071;-55
2022/07/25 13:53:23;;;;;;;18.88;7.25;;;;;;;;;;10442582;28;20017;-52
2022/07/25 13:58:24;;;;;;;16.63;7.15;;;;;;;;;;10423523;28;20025;-57
2022/07/25 14:03:25;;;;;;;12.93;6.30;;;;;;;;;;10424913;28;20029;-54
2022/07/25 14:08:25;;;;;;;9.32;6.00;;;;;;;;;;10443964;28;20021;-56
2022/07/25 14:13:26;;;;;;;13.13;6.18;;;;;;;;;;10444099;28;20025;-58
2022/07/25 14:18:29;;;;;;;10.00;6.05;;;;;;;;;;10447462;28;20028;-58
2022/07/25 14:23:29;;;;;;;13.23;5.72;;;;;;;;;;10445651;28;20029;-55
2022/07/25 14:28:30;;;;;;;16.27;5.50;;;;;;;;;;10447191;28;20017;-54
2022/07/25 14:33:30;;;;;;;11.65;5.55;;;;;;;;;;10443261;28;20021;-58
2022/07/25 14:38:31;;;;;;;17.63;6.75;;;;;;;;;;10437943;28;20033;-58
2022/07/25 14:43:32;;;;;;;8.55;5.20;;;;;;;;;;10437881;28;20029;-55
2022/07/25 14:48:35;;;;;;;14.38;5.97;;;;;;;;;;10427838;28;20030;-55
2022/07/25 14:53:36;;;;;;;7.35;5.20;;;;;;;;;;10434881;28;20030;-54
2022/07/25 14:58:38;;;;;;;10.27;5.32;;;;;;;;;;10451862;28;20036;-51
2022/07/25 15:03:38;;;;;;;8.52;5.30;;;;;;;;;;10453405;28;20025;-56
2022/07/25 15:08:39;;;;;;;10.25;5.53;;;;;;;;;;10428749;28;20032;-53
2022/07/25 15:13:39;;;;;;;7.72;4.70;;;;;;;;;;10435429;28;20112;-56
2022/07/25 15:18:42;;;;;;;8.13;5.32;;;;;;;;;;10445384;28;20033;-56
2022/07/25 15:23:43;;;;;;;6.50;4.70;;;;;;;;;;10450917;28;20045;-55
2022/07/25 15:28:44;;;;;;;6.93;5.03;;;;;;;;;;10452414;28;20419;-53
2022/07/25 15:33:44;;;;;;;6.43;4.80;;;;;;;;;;10453164;28;20024;-51
2022/07/25 15:38:45;;;;;;;9.68;4.93;;;;;;;;;;10444535;28;20055;-53
2022/07/25 15:43:46;;;;;;;6.32;4.93;;;;;;;;;;10434576;28;20025;-54
2022/07/25 15:48:47;;;;;;;8.60;4.32;;;;;;;;;;10446863;28;20117;-58
2022/07/25 15:53:48;;;;;;;6.80;4.85;;;;;;;;;;10451312;28;20070;-52
2022/07/25 15:58:48;;;;;;;7.63;4.75;;;;;;;;;;10426543;28;20112;-54
2022/07/25 16:03:49;;;;;;;6.72;4.53;;;;;;;;;;10433087;28;20029;-52
2022/07/25 16:08:50;;;;;;;8.50;4.60;;;;;;;;;;10449398;28;20194;-54
2022/07/25 16:13:51;;;;;;;5.70;4.15;;;;;;;;;;10450916;28;20074;-51
2022/07/25 16:18:51;;;;;;;6.70;4.55;;;;;;;;;;10451002;28;20036;-54
2022/07/25 16:23:52;;;;;;;5.55;4.10;;;;;;;;;;10449151;28;20045;-54
2022/07/25 16:28:53;;;;;;;5.03;4.00;;;;;;;;;;10449086;28;20041;-54
2022/07/25 16:33:53;;;;;;;7.57;4.32;;;;;;;;;;10450095;28;20025;-57
2022/07/25 16:38:56;;;;;;;5.28;4.25;;;;;;;;;;10449920;28;20079;-55
2022/07/25 16:43:56;;;;;;;5.13;4.13;;;;;;;;;;10440552;28;20024;-56
2022/07/25 16:48:57;;;;;;;5.70;4.60;;;;;;;;;;10447573;28;20383;-59
2022/07/25 16:53:58;;;;;;;5.85;3.90;;;;;;;;;;10419938;28;20028;-57
2022/07/25 16:58:59;;;;;;;6.45;4.55;;;;;;;;;;10446384;28;20055;-59
2022/07/25 17:04:00;;;;;;;4.47;3.92;;;;;;;;;;10438755;28;20039;-50
2022/07/25 17:09:01;;;;;;;4.90;3.75;;;;;;;;;;10447624;28;20028;-56
2022/07/25 17:14:03;;;;;;;4.88;4.05;;;;;;;;;;10427858;28;20021;-57
2022/07/25 17:19:03;;;;;;;3.95;3.55;;;;;;;;;;10440859;28;20033;-53
2022/07/25 17:24:05;;;;;;;5.32;3.50;;;;;;;;;;10443158;28;20409;-56
2022/07/25 17:29:09;;;;;;;5.68;4.20;;;;;;;;;;10446324;28;20044;-50
2022/07/25 17:34:10;;;;;;;8.98;4.00;;;;;;;;;;10447008;28;20025;-56
2022/07/25 17:39:11;;;;;;;5.65;4.00;;;;;;;;;;10448020;28;20211;-58
2022/07/25 17:44:11;;;;;;;4.00;3.70;;;;;;;;;;10447403;28;20048;-56
2022/07/25 17:49:12;;;;;;;5.70;3.85;;;;;;;;;;10444821;28;20028;-53
2022/07/25 17:54:13;;;;;;;4.13;3.70;;;;;;;;;;10445125;28;20679;-58
2022/07/25 17:59:13;;;;;;;6.30;4.03;;;;;;;;;;10447889;28;20528;-53
2022/07/25 18:04:14;;;;;;;6.93;4.78;;;;;;;;;;10447429;28;20542;-54
2022/07/25 18:09:15;;;;;;;12.20;4.70;;;;;;;;;;10443262;28;20033;-55
2022/07/25 18:14:16;;;;;;;13.48;5.22;;;;;;;;;;10440165;28;20040;-55
2022/07/25 18:19:16;;;;;;;9.93;4.60;;;;;;;;;;10432935;28;20428;-55
2022/07/25 18:24:17;;;;;;;11.80;5.25;;;;;;;;;;10419050;28;20053;-53
2022/07/25 18:29:18;;;;;;;11.40;5.15;;;;;;;;;;10415445;28;20105;-55
2022/07/25 18:34:19;;;;;;;13.45;5.22;;;;;;;;;;10428255;28;20476;-54
2022/07/25 18:39:19;;;;;;;10.20;5.13;;;;;;;;;;10433974;28;20041;-57
2022/07/25 18:44:20;;;;;;;11.50;4.82;;;;;;;;;;10427399;28;20033;-54
2022/07/25 18:49:21;;;;;;;9.88;4.88;;;;;;;;;;10420503;28;20055;-58
2022/07/25 18:54:22;;;;;;;15.43;5.28;;;;;;;;;;10428909;28;20063;-57
2022/07/25 18:59:25;;;;;;;17.88;5.28;;;;;;;;;;10438719;28;20051;-57
2022/07/25 19:04:26;;;;;;;10.30;4.10;;;;;;;;;;10449207;28;20025;-58
2022/07/25 19:09:26;;;;;;;11.45;4.10;;;;;;;;;;10452874;28;20731;-58
2022/07/25 19:14:29;;;;;;;10.20;4.72;;;;;;;;;;10442135;28;20037;-54
2022/07/25 19:19:30;;;;;;;12.82;4.45;;;;;;;;;;10442357;28;20028;-52
2022/07/25 19:24:30;;;;;;;14.40;5.47;;;;;;;;;;10450025;28;20047;-52
2022/07/25 19:29:31;;;;;;;12.23;4.40;;;;;;;;;;10451356;28;20037;-52
2022/07/25 19:34:32;;;;;;;13.05;4.30;;;;;;;;;;10451686;28;20048;-52
2022/07/25 19:39:32;;;;;;;8.07;4.05;;;;;;;;;;10450246;28;20029;-53
2022/07/25 19:44:33;;;;;;;7.82;4.30;;;;;;;;;;10452429;28;20033;-51
2022/07/25 19:49:34;;;;;;;8.88;3.90;;;;;;;;;;10448116;28;20547;-50
2022/07/25 19:54:35;;;;;;;9.00;4.20;;;;;;;;;;10444887;28;20169;-51
2022/07/25 19:59:35;;;;;;;10.02;3.90;;;;;;;;;;10450776;28;20492;-52
2022/07/25 20:04:36;;;;;;;6.13;3.55;;;;;;;;;;10436112;28;20067;-51
2022/07/25 20:09:36;;;;;;;8.73;3.85;;;;;;;;;;10429304;28;20068;-51
2022/07/25 20:14:37;;;;;;;9.75;3.60;;;;;;;;;;10443495;28;20037;-51
2022/07/25 20:19:38;;;;;;;9.25;4.22;;;;;;;;;;10443488;28;20037;-53
2022/07/25 20:24:38;;;;;;;6.20;3.53;;;;;;;;;;10430493;28;20052;-52
2022/07/25 20:29:39;;;;;;;7.60;3.60;;;;;;;;;;10434631;28;20033;-56
2022/07/25 20:34:39;;;;;;;6.82;3.50;;;;;;;;;;10436096;28;20503;-56
2022/07/25 20:39:40;;;;;;;6.60;3.88;;;;;;;;;;10443512;28;20032;-54
2022/07/25 20:44:41;;;;;;;14.68;4.00;;;;;;;;;;10447351;28;20040;-53
2022/07/25 20:49:41;;;;;;;4.95;3.53;;;;;;;;;;10427823;28;20050;-52
2022/07/25 20:54:42;;;;;;;6.40;3.58;;;;;;;;;;10447373;28;20113;-54
2022/07/25 20:59:43;;;;;;;5.45;3.45;;;;;;;;;;10449144;28;20033;-55
2022/07/25 21:04:45;;;;;;;7.90;3.28;;;;;;;;;;10433312;28;20029;-54
2022/07/25 21:09:46;;;;;;;6.35;3.65;;;;;;;;;;10416974;28;20054;-53
2022/07/25 21:14:46;;;;;;;9.20;3.63;;;;;;;;;;10424051;28;20605;-55
2022/07/25 21:19:47;;;;;;;8.95;3.42;;;;;;;;;;10421256;28;20033;-55
2022/07/25 21:24:51;;;;;;;5.38;2.80;;;;;;;;;;10415320;28;20057;-55
2022/07/25 21:29:52;;;;;;;11.23;3.55;;;;;;;;;;10421910;28;20017;-53
2022/07/25 21:34:52;;;;;;;13.85;3.38;;;;;;;;;;10417067;28;20037;-52
2022/07/25 21:39:53;;;;;;;6.35;3.47;;;;;;;;;;10415823;28;20500;-53
2022/07/25 21:44:53;;;;;;;9.10;3.83;;;;;;;;;;10416650;28;20029;-55
2022/07/25 21:55:14;;;;;;;19.88;3.00;;;;;;;;;;10415802;28;20584;-55
2022/07/25 22:00:15;;;;;;;10.10;3.50;;;;;;;;;;10402258;28;20241;-56
2022/07/25 22:05:17;;;;;;;10.30;3.70;;;;;;;;;;10430977;28;20122;-56
2022/07/25 22:10:19;;;;;;;9.27;3.45;;;;;;;;;;10446049;28;20021;-53
2022/07/25 22:15:20;;;;;;;10.18;3.97;;;;;;;;;;10455509;28;20396;-55
2022/07/25 22:20:21;;;;;;;12.20;3.38;;;;;;;;;;10455102;28;20066;-52
2022/07/25 22:25:22;;;;;;;8.23;3.28;;;;;;;;;;10451348;28;20049;-53
2022/07/25 22:30:22;;;;;;;10.38;4.13;;;;;;;;;;10452507;28;20029;-55
2022/07/25 22:35:23;;;;;;;8.23;3.55;;;;;;;;;;10452408;28;20044;-50
2022/07/25 22:40:23;;;;;;;5.05;3.00;;;;;;;;;;10441644;28;20033;-50
2022/07/25 22:45:24;;;;;;;9.18;3.90;;;;;;;;;;10453434;28;20237;-57
2022/07/25 22:50:25;;;;;;;5.93;3.40;;;;;;;;;;10436220;28;20043;-58
2022/07/25 22:55:25;;;;;;;10.15;3.50;;;;;;;;;;10451917;28;20523;-58
2022/07/25 23:00:26;;;;;;;5.78;3.53;;;;;;;;;;10448269;28;20040;-53
2022/07/25 23:05:27;;;;;;;10.20;3.38;;;;;;;;;;10446883;28;20231;-57
2022/07/25 23:10:27;;;;;;;7.72;3.60;;;;;;;;;;10452818;28;20388;-58
2022/07/25 23:15:28;;;;;;;15.32;3.38;;;;;;;;;;10448242;28;20025;-58
2022/07/25 23:20:29;;;;;;;7.78;4.07;;;;;;;;;;10445820;28;20167;-56
2022/07/25 23:25:29;;;;;;;15.70;3.95;;;;;;;;;;10448271;28;20045;-53
2022/07/25 23:30:30;;;;;;;10.70;3.63;;;;;;;;;;10451783;28;20056;-52
2022/07/25 23:35:31;;;;;;;10.75;3.17;;;;;;;;;;10450620;28;20025;-54
2022/07/25 23:40:31;;;;;;;8.43;2.90;;;;;;;;;;10434077;28;20036;-50
2022/07/25 23:45:32;;;;;;;12.35;3.90;;;;;;;;;;10445304;28;20028;-53
2022/07/25 23:50:33;;;;;;;11.70;3.40;;;;;;;;;;10450355;28;20021;-50
2022/07/25 23:55:33;;;;;;;9.07;3.42;;;;;;;;;;10434311;28;20067;-53
